Time;durP1;ratioP1;P1;durP2;ratioP2;P2;SDS_P1;SDS_P2;PMS_P1;PMS_P2;Temp;Humidity;BMP_temperature;BMP_pressure;BME280_temperature;BME280_humidity;BME280_pressure;Samples;Min_cycle;Max_cycle;Signal;HPM_P1;HPM_P2
2022/03/23 00:00:32;;;;;;;19.13;10.73;;;11.70;34.80;;;;;;4983045;28;20414;-42
2022/03/23 00:02:59;;;;;;;17.75;10.57;;;11.70;34.80;;;;;;4985248;28;20062;-42
2022/03/23 00:05:28;;;;;;;16.10;10.18;;;11.70;34.90;;;;;;4981315;28;20569;-43
2022/03/23 00:07:57;;;;;;;16.60;10.10;;;11.60;35.00;;;;;;4984478;28;20050;-42
2022/03/23 00:10:25;;;;;;;17.20;10.32;;;11.60;35.00;;;;;;4986209;28;20058;-42
2022/03/23 00:12:57;;;;;;;16.30;9.45;;;11.60;35.00;;;;;;4984554;28;20053;-43
2022/03/23 00:15:24;;;;;;;19.48;10.20;;;11.50;35.00;;;;;;4982762;28;20686;-45
2022/03/23 00:17:52;;;;;;;17.02;10.10;;;11.50;35.20;;;;;;4982758;28;20062;-44
2022/03/23 00:20:19;;;;;;;18.42;9.68;;;11.50;35.30;;;;;;4984860;28;20050;-42
2022/03/23 00:22:47;;;;;;;17.83;9.98;;;11.50;35.50;;;;;;4983712;28;20054;-42
2022/03/23 00:25:16;;;;;;;21.52;11.20;;;11.40;35.50;;;;;;4982894;28;20054;-42
2022/03/23 00:27:43;;;;;;;14.82;9.82;;;11.40;35.60;;;;;;4985462;28;20065;-43
2022/03/23 00:30:11;;;;;;;21.42;10.45;;;11.40;35.60;;;;;;4982658;28;20046;-43
2022/03/23 00:32:39;;;;;;;18.65;9.55;;;11.30;35.60;;;;;;4984917;28;20058;-42
2022/03/23 00:35:07;;;;;;;15.80;10.13;;;11.30;35.70;;;;;;4983165;28;20054;-42
2022/03/23 00:37:35;;;;;;;17.60;10.57;;;11.30;35.80;;;;;;4984588;28;20058;-42
2022/03/23 00:40:02;;;;;;;18.10;10.68;;;11.20;36.00;;;;;;4984425;28;20057;-43
2022/03/23 00:42:31;;;;;;;19.05;10.25;;;11.20;36.10;;;;;;4984144;28;20046;-43
2022/03/23 00:44:59;;;;;;;16.92;10.70;;;11.20;36.20;;;;;;4982799;28;20061;-42
2022/03/23 00:47:26;;;;;;;17.63;10.52;;;11.10;36.40;;;;;;4984355;28;20066;-44
2022/03/23 00:49:54;;;;;;;20.50;10.98;;;11.10;36.50;;;;;;4983030;28;20058;-43
2022/03/23 00:52:21;;;;;;;18.58;10.13;;;11.10;36.60;;;;;;4984823;28;20065;-43
2022/03/23 00:54:49;;;;;;;19.55;11.10;;;11.00;36.70;;;;;;4981395;28;20058;-42
2022/03/23 00:57:16;;;;;;;17.08;9.48;;;11.00;36.80;;;;;;4984205;28;20065;-42
2022/03/23 00:59:45;;;;;;;16.25;9.93;;;11.00;36.80;;;;;;4984912;28;20050;-42
2022/03/23 01:02:14;;;;;;;19.58;10.27;;;10.90;36.80;;;;;;4982475;28;20061;-43
2022/03/23 01:04:42;;;;;;;17.48;10.63;;;10.90;36.80;;;;;;4981397;28;20066;-44
2022/03/23 01:07:09;;;;;;;20.83;11.05;;;10.80;36.80;;;;;;4984316;28;20054;-45
2022/03/23 01:09:37;;;;;;;17.33;10.45;;;10.90;36.90;;;;;;4983543;28;20057;-43
2022/03/23 01:12:05;;;;;;;26.52;11.05;;;10.80;36.90;;;;;;4983610;28;20062;-42
2022/03/23 01:14:32;;;;;;;18.30;11.02;;;10.80;37.00;;;;;;4982430;28;20061;-42
2022/03/23 01:17:01;;;;;;;17.70;10.90;;;10.70;37.00;;;;;;4982691;28;20061;-42
2022/03/23 01:19:29;;;;;;;18.08;10.85;;;10.70;37.10;;;;;;4983646;28;20054;-43
2022/03/23 01:21:57;;;;;;;18.27;10.55;;;10.70;37.30;;;;;;4982671;28;20050;-43
2022/03/23 01:24:24;;;;;;;18.17;10.20;;;10.70;37.50;;;;;;4980192;28;20046;-42
2022/03/23 01:26:52;;;;;;;18.23;10.85;;;10.60;37.50;;;;;;4983599;28;20054;-43
2022/03/23 01:29:19;;;;;;;18.75;10.43;;;10.60;37.60;;;;;;4983330;28;20058;-42
2022/03/23 01:31:47;;;;;;;18.65;11.25;;;10.50;37.60;;;;;;4983248;28;20076;-43
2022/03/23 01:34:16;;;;;;;19.10;11.43;;;10.60;37.60;;;;;;4981214;28;20051;-43
2022/03/23 01:36:44;;;;;;;19.85;10.57;;;10.50;37.70;;;;;;4984210;28;20065;-42
2022/03/23 01:39:12;;;;;;;20.33;11.82;;;10.50;37.70;;;;;;4981773;28;20058;-46
2022/03/23 01:41:41;;;;;;;16.42;9.52;;;10.50;37.70;;;;;;4984139;28;20057;-43
2022/03/23 01:44:17;;;;;;;17.52;10.77;;;10.40;37.80;;;;;;4981217;28;20054;-42
2022/03/23 01:47:08;;;;;;;16.05;9.77;;;10.40;37.90;;;;;;4980314;28;20065;-42
2022/03/23 01:49:38;;;;;;;18.42;10.20;;;10.40;38.20;;;;;;4983077;28;20058;-42
2022/03/23 01:52:08;;;;;;;17.80;10.13;;;10.40;38.10;;;;;;4982619;28;20066;-44
2022/03/23 01:54:36;;;;;;;19.83;10.60;;;10.30;38.10;;;;;;4980539;28;20072;-42
2022/03/23 01:57:06;;;;;;;18.95;10.23;;;10.30;38.30;;;;;;4982423;28;20069;-42
2022/03/23 01:59:34;;;;;;;19.67;11.18;;;10.30;38.30;;;;;;4982293;28;20410;-42
2022/03/23 02:02:02;;;;;;;16.73;10.13;;;10.20;38.30;;;;;;4983016;28;20061;-44
2022/03/23 02:04:29;;;;;;;20.52;10.57;;;10.20;38.30;;;;;;4979908;28;20057;-44
2022/03/23 02:06:58;;;;;;;18.83;10.68;;;10.20;38.40;;;;;;4981932;28;20059;-42
2022/03/23 02:09:27;;;;;;;15.85;9.63;;;10.20;38.60;;;;;;4981622;28;20193;-45
2022/03/23 02:11:55;;;;;;;19.00;10.60;;;10.10;38.50;;;;;;4982272;28;20058;-42
2022/03/23 02:14:22;;;;;;;17.48;10.55;;;10.10;38.60;;;;;;4982346;28;20050;-45
2022/03/23 02:16:52;;;;;;;17.73;10.05;;;10.10;38.70;;;;;;4981018;28;20061;-42
2022/03/23 02:19:21;;;;;;;17.10;9.40;;;10.10;39.30;;;;;;4981995;28;20065;-42
2022/03/23 02:21:52;;;;;;;16.45;9.75;;;10.00;38.80;;;;;;4983739;28;20069;-42
2022/03/23 02:24:24;;;;;;;16.42;9.60;;;10.00;39.40;;;;;;4979923;28;20398;-42
2022/03/23 02:26:53;;;;;;;22.70;11.43;;;10.00;39.00;;;;;;4982888;28;20054;-41
2022/03/23 02:29:22;;;;;;;23.13;11.90;;;9.90;39.10;;;;;;4982613;28;20058;-42
2022/03/23 02:31:49;;;;;;;20.83;11.25;;;9.90;39.30;;;;;;4982591;28;20442;-42
2022/03/23 02:34:17;;;;;;;19.27;11.07;;;9.80;39.20;;;;;;4981518;28;20054;-42
2022/03/23 02:36:45;;;;;;;16.48;10.57;;;9.80;39.30;;;;;;4981768;28;20068;-44
2022/03/23 02:39:14;;;;;;;23.42;13.02;;;9.80;39.40;;;;;;4978282;28;20058;-42
2022/03/23 02:41:41;;;;;;;17.65;10.63;;;9.70;39.50;;;;;;4980977;28;20054;-43
2022/03/23 02:44:09;;;;;;;19.65;10.77;;;9.70;39.40;;;;;;4981196;28;20061;-42
2022/03/23 02:46:36;;;;;;;19.92;11.52;;;9.70;39.60;;;;;;4977027;28;20275;-45
2022/03/23 02:49:04;;;;;;;20.45;11.70;;;9.70;39.60;;;;;;4980163;28;20418;-43
2022/03/23 02:51:32;;;;;;;23.63;11.27;;;9.60;39.70;;;;;;4982269;28;20059;-43
2022/03/23 03:02:34;;;;;;;17.95;10.10;;;9.60;39.80;;;;;;4983028;28;20057;-43
2022/03/23 03:05:02;;;;;;;20.20;11.15;;;9.50;39.70;;;;;;4979714;28;20108;-43
2022/03/23 03:08:44;;;;;;;21.67;11.98;;;9.50;39.80;;;;;;4981789;28;20059;-42
2022/03/23 03:10:17;;;;;;;17.08;10.60;;;9.50;39.80;;;;;;4981639;28;20062;-42
2022/03/23 03:12:46;;;;;;;21.10;11.35;;;9.50;39.80;;;;;;4982934;28;20061;-43
2022/03/23 03:15:14;;;;;;;16.90;9.75;;;9.40;39.90;;;;;;4979061;28;20058;-45
2022/03/23 03:17:42;;;;;;;20.75;10.40;;;9.40;40.00;;;;;;4981873;28;20058;-44
2022/03/23 03:20:11;;;;;;;19.35;11.50;;;9.40;40.00;;;;;;4983231;28;20073;-43
2022/03/23 03:22:40;;;;;;;20.10;10.98;;;9.30;40.10;;;;;;4982425;28;20062;-43
2022/03/23 03:25:12;;;;;;;18.50;11.60;;;9.30;40.20;;;;;;4979144;28;20054;-43
2022/03/23 03:27:40;;;;;;;17.83;10.00;;;9.30;40.80;;;;;;4985744;28;20422;-43
2022/03/23 03:30:11;;;;;;;16.40;10.13;;;9.30;40.30;;;;;;4985440;28;20065;-43
2022/03/23 03:32:39;;;;;;;17.45;10.55;;;9.30;40.40;;;;;;4984443;28;20051;-42
2022/03/23 03:35:08;;;;;;;17.13;10.13;;;9.20;40.40;;;;;;4981575;28;20059;-43
2022/03/23 03:37:36;;;;;;;21.42;10.98;;;9.20;40.40;;;;;;4986097;28;20423;-42
2022/03/23 03:40:05;;;;;;;22.88;11.90;;;9.20;40.50;;;;;;4985244;28;20061;-47
2022/03/23 03:42:32;;;;;;;22.27;11.57;;;9.10;40.60;;;;;;4984831;28;20061;-43
2022/03/23 03:45:00;;;;;;;20.52;11.52;;;9.10;40.70;;;;;;4982487;28;20974;-43
2022/03/23 03:47:29;;;;;;;20.80;11.65;;;9.10;40.70;;;;;;4984751;28;20054;-42
2022/03/23 03:49:57;;;;;;;21.73;11.05;;;9.10;40.80;;;;;;4986015;28;20054;-44
2022/03/23 03:52:24;;;;;;;20.55;11.35;;;9.10;40.90;;;;;;4982927;28;20120;-42
2022/03/23 03:54:52;;;;;;;20.48;11.07;;;9.00;40.80;;;;;;4983183;28;20062;-44
2022/03/23 03:57:19;;;;;;;19.67;10.90;;;9.00;40.90;;;;;;4985513;28;20066;-42
2022/03/23 03:59:47;;;;;;;19.92;11.40;;;9.00;41.00;;;;;;4984840;28;20054;-42
2022/03/23 04:02:15;;;;;;;17.45;10.90;;;9.00;40.90;;;;;;4984593;28;20399;-43
2022/03/23 04:04:44;;;;;;;24.10;12.90;;;9.00;41.10;;;;;;4981304;28;20426;-42
2022/03/23 04:07:11;;;;;;;19.48;11.77;;;8.90;41.10;;;;;;4984614;28;20058;-46
2022/03/23 04:09:38;;;;;;;24.05;12.20;;;8.90;41.20;;;;;;4984126;28;20065;-43
2022/03/23 04:12:09;;;;;;;19.98;12.02;;;8.90;41.20;;;;;;4983367;28;20096;-42
2022/03/23 04:14:36;;;;;;;20.75;11.73;;;8.90;41.20;;;;;;4980415;28;20054;-43
2022/03/23 04:17:04;;;;;;;21.55;11.68;;;8.90;41.20;;;;;;4984392;28;20054;-43
2022/03/23 04:19:32;;;;;;;17.90;10.63;;;8.80;41.20;;;;;;4985047;28;20061;-43
2022/03/23 04:22:00;;;;;;;21.15;12.60;;;8.80;41.20;;;;;;4984187;28;20078;-42
2022/03/23 04:24:28;;;;;;;25.38;13.18;;;8.80;41.30;;;;;;4979825;28;20061;-43
2022/03/23 04:26:55;;;;;;;27.65;12.30;;;8.80;41.30;;;;;;4984423;28;20054;-42
2022/03/23 04:29:24;;;;;;;24.80;12.70;;;8.80;41.40;;;;;;4984168;28;20058;-42
2022/03/23 04:31:52;;;;;;;20.40;11.60;;;8.70;41.50;;;;;;4983700;28;20046;-43
2022/03/23 04:34:19;;;;;;;19.35;11.38;;;8.70;41.50;;;;;;4982398;28;20058;-46
2022/03/23 04:36:47;;;;;;;27.10;13.43;;;8.70;41.60;;;;;;4984056;28;20057;-42
2022/03/23 04:39:16;;;;;;;21.48;12.18;;;8.70;41.50;;;;;;4980594;28;20062;-42
2022/03/23 04:41:43;;;;;;;19.52;11.05;;;8.70;41.50;;;;;;4979590;28;20055;-42
2022/03/23 04:44:11;;;;;;;21.73;11.57;;;8.60;41.50;;;;;;4983026;28;20069;-43
2022/03/23 04:46:39;;;;;;;21.30;11.38;;;8.60;41.50;;;;;;4981410;28;20058;-43
2022/03/23 04:49:06;;;;;;;24.05;11.40;;;8.60;41.60;;;;;;4979496;28;20050;-42
2022/03/23 04:51:34;;;;;;;21.55;11.85;;;8.60;41.60;;;;;;4981614;28;20051;-44
2022/03/23 04:54:02;;;;;;;20.08;11.70;;;8.60;41.70;;;;;;4982744;28;20050;-42
2022/03/23 04:56:31;;;;;;;26.27;12.65;;;8.60;41.70;;;;;;4984951;28;20062;-46
2022/03/23 04:58:59;;;;;;;25.88;13.27;;;8.60;41.80;;;;;;4981481;28;20069;-43
2022/03/23 05:01:27;;;;;;;25.25;12.32;;;8.60;41.90;;;;;;4983890;28;20061;-42
2022/03/23 05:03:55;;;;;;;18.75;12.23;;;8.60;41.90;;;;;;4983130;28;20054;-44
2022/03/23 05:06:22;;;;;;;19.75;11.43;;;8.50;41.90;;;;;;4983996;28;20054;-43
2022/03/23 05:08:50;;;;;;;22.10;11.45;;;8.50;41.90;;;;;;4983913;28;20069;-42
2022/03/23 05:11:17;;;;;;;26.63;12.57;;;8.50;41.90;;;;;;4984857;28;20058;-43
2022/03/23 05:13:46;;;;;;;24.77;12.10;;;8.50;42.00;;;;;;4981901;28;20058;-42
2022/03/23 05:16:14;;;;;;;22.60;12.23;;;8.50;42.00;;;;;;4981594;28;20051;-42
2022/03/23 05:18:42;;;;;;;24.98;12.40;;;8.50;42.00;;;;;;4983771;28;20058;-42
2022/03/23 05:21:10;;;;;;;22.83;11.45;;;8.40;42.00;;;;;;4983338;28;20058;-45
2022/03/23 05:23:37;;;;;;;23.45;11.70;;;8.40;42.10;;;;;;4983659;28;20058;-43
2022/03/23 05:26:05;;;;;;;34.03;16.77;;;8.40;42.10;;;;;;4983141;28;20050;-42
2022/03/23 05:28:32;;;;;;;31.63;17.50;;;8.40;42.10;;;;;;4984596;28;20066;-43
2022/03/23 05:31:01;;;;;;;28.33;15.38;;;8.40;42.10;;;;;;4983318;28;20521;-42
2022/03/23 05:33:28;;;;;;;21.83;12.57;;;8.40;42.20;;;;;;4983646;28;20061;-43
2022/03/23 05:35:56;;;;;;;20.70;12.00;;;8.40;42.20;;;;;;4981828;28;20058;-45
2022/03/23 05:38:23;;;;;;;26.95;13.27;;;8.40;42.20;;;;;;4982578;28;20050;-43
2022/03/23 05:40:51;;;;;;;23.92;12.10;;;8.40;42.30;;;;;;4981089;28;20065;-43
2022/03/23 05:43:19;;;;;;;19.23;11.38;;;8.40;42.30;;;;;;4981569;28;20053;-42
2022/03/23 05:45:47;;;;;;;22.50;12.05;;;8.40;42.30;;;;;;4979966;28;20065;-43
2022/03/23 05:48:16;;;;;;;21.15;12.20;;;8.40;42.40;;;;;;4983599;28;20418;-42
2022/03/23 05:50:43;;;;;;;19.88;12.60;;;8.40;42.50;;;;;;4981021;28;20054;-43
2022/03/23 05:53:11;;;;;;;19.15;11.77;;;8.30;42.50;;;;;;4979085;28;20050;-43
2022/03/23 05:55:38;;;;;;;23.25;11.98;;;8.30;42.50;;;;;;4980968;28;20069;-43
2022/03/23 05:58:09;;;;;;;22.80;12.50;;;8.30;42.60;;;;;;4982038;28;20422;-43
2022/03/23 06:00:36;;;;;;;23.83;12.60;;;8.30;42.50;;;;;;4982580;28;20054;-44
2022/03/23 06:03:04;;;;;;;54.47;26.30;;;8.40;42.60;;;;;;4974346;28;20039;-43
2022/03/23 06:05:33;;;;;;;82.85;34.78;;;8.30;42.60;;;;;;4980956;28;20057;-42
2022/03/23 06:08:01;;;;;;;35.05;17.98;;;8.30;42.80;;;;;;4981334;28;20069;-45
2022/03/23 06:10:28;;;;;;;28.75;14.70;;;8.30;42.70;;;;;;4983366;28;20516;-43
2022/03/23 06:12:56;;;;;;;21.95;12.40;;;8.40;42.80;;;;;;4979709;28;20055;-43
2022/03/23 06:15:23;;;;;;;22.83;12.15;;;8.30;42.70;;;;;;4981779;28;20509;-43
2022/03/23 06:17:52;;;;;;;18.92;12.10;;;8.40;42.80;;;;;;4982277;28;20061;-43
2022/03/23 06:20:19;;;;;;;21.77;11.77;;;8.30;42.80;;;;;;4980246;28;20536;-42
2022/03/23 06:22:48;;;;;;;21.10;12.73;;;8.40;42.80;;;;;;4980598;28;20057;-44
2022/03/23 06:25:16;;;;;;;20.88;11.48;;;8.40;42.90;;;;;;4976845;28;22970;-42
2022/03/23 06:27:43;;;;;;;24.92;12.40;;;8.40;42.90;;;;;;4981486;28;20510;-42
2022/03/23 06:30:12;;;;;;;25.70;11.73;;;8.40;43.00;;;;;;4977838;28;20081;-44
2022/03/23 06:32:40;;;;;;;23.88;12.27;;;8.50;43.00;;;;;;4981716;28;20062;-42
2022/03/23 06:35:08;;;;;;;21.73;12.85;;;8.50;43.10;;;;;;4978656;28;20585;-43
2022/03/23 06:37:36;;;;;;;22.42;12.48;;;8.60;43.20;;;;;;4980143;28;20112;-46
2022/03/23 06:40:07;;;;;;;25.55;13.10;;;8.60;43.10;;;;;;4982323;28;20430;-42
2022/03/23 06:42:34;;;;;;;21.88;13.45;;;8.60;43.20;;;;;;4981208;28;20403;-42
2022/03/23 06:45:02;;;;;;;24.23;13.18;;;8.70;43.20;;;;;;4977409;28;20127;-42
2022/03/23 06:47:30;;;;;;;29.13;13.50;;;8.70;43.20;;;;;;4980588;28;20058;-42
2022/03/23 06:49:57;;;;;;;25.88;14.07;;;8.70;43.30;;;;;;4980857;28;20065;-44
2022/03/23 06:52:25;;;;;;;24.98;11.57;;;8.70;43.40;;;;;;4979317;28;20495;-42
2022/03/23 06:54:53;;;;;;;25.58;13.57;;;8.80;43.40;;;;;;4979469;28;20054;-42
2022/03/23 06:57:22;;;;;;;23.42;13.60;;;8.90;43.40;;;;;;4982076;28;20514;-42
2022/03/23 06:59:49;;;;;;;31.38;15.75;;;8.90;43.40;;;;;;4977830;28;20058;-43
2022/03/23 07:02:17;;;;;;;21.85;13.10;;;8.90;43.40;;;;;;4980084;28;20051;-42
2022/03/23 07:04:44;;;;;;;23.08;13.30;;;9.00;43.50;;;;;;4981717;28;20415;-43
2022/03/23 07:07:12;;;;;;;24.27;13.35;;;9.00;43.50;;;;;;4974186;28;20073;-44
2022/03/23 07:09:40;;;;;;;23.17;13.25;;;9.00;43.60;;;;;;4984457;28;20069;-42
2022/03/23 07:12:10;;;;;;;28.15;13.40;;;9.10;43.60;;;;;;4985921;28;20042;-44
2022/03/23 07:14:41;;;;;;;25.88;13.35;;;9.20;43.70;;;;;;4979999;28;20077;-46
2022/03/23 07:17:09;;;;;;;21.52;12.50;;;9.20;43.60;;;;;;4984848;28;20418;-43
2022/03/23 07:19:36;;;;;;;24.92;14.07;;;9.30;43.60;;;;;;4984721;28;20055;-43
2022/03/23 07:22:04;;;;;;;25.48;13.85;;;9.30;43.70;;;;;;4986189;28;20051;-45
2022/03/23 07:24:32;;;;;;;24.25;14.10;;;9.40;43.80;;;;;;4983411;28;20069;-42
2022/03/23 07:27:01;;;;;;;27.60;14.70;;;9.40;43.90;;;;;;4985053;28;20069;-43
2022/03/23 07:29:28;;;;;;;29.73;13.80;;;9.50;44.00;;;;;;4985349;28;20410;-42
2022/03/23 07:31:57;;;;;;;23.52;13.60;;;9.50;44.00;;;;;;4984124;28;20499;-44
2022/03/23 07:34:25;;;;;;;21.23;12.75;;;9.60;43.90;;;;;;4983130;28;20046;-43
2022/03/23 07:36:52;;;;;;;22.17;13.23;;;9.70;43.90;;;;;;4984603;28;20387;-42
2022/03/23 07:39:23;;;;;;;24.85;14.13;;;9.70;43.80;;;;;;4985254;28;20058;-42
2022/03/23 07:41:52;;;;;;;23.73;14.00;;;9.80;43.80;;;;;;4985357;28;20053;-42
2022/03/23 07:44:21;;;;;;;23.23;14.13;;;9.90;43.80;;;;;;4983826;28;20795;-43
2022/03/23 07:46:48;;;;;;;25.02;14.77;;;9.90;43.70;;;;;;4984990;28;20061;-42
2022/03/23 07:49:17;;;;;;;24.52;14.05;;;10.00;43.80;;;;;;4984846;28;20391;-44
2022/03/23 07:51:45;;;;;;;29.15;15.32;;;10.10;43.60;;;;;;4985032;28;20070;-42
2022/03/23 07:54:12;;;;;;;29.45;14.73;;;10.10;43.70;;;;;;4982455;28;20436;-42
2022/03/23 07:56:40;;;;;;;24.85;14.70;;;10.20;43.80;;;;;;4983168;28;20062;-42
2022/03/23 07:59:07;;;;;;;25.33;14.48;;;10.30;43.70;;;;;;4981835;28;20057;-42
2022/03/23 08:01:35;;;;;;;25.33;15.82;;;10.30;43.60;;;;;;4984294;28;20061;-45
2022/03/23 08:04:05;;;;;;;25.45;15.00;;;10.50;43.90;;;;;;4981820;28;20478;-43
2022/03/23 08:06:35;;;;;;;27.60;14.73;;;10.50;43.90;;;;;;4982450;28;20065;-43
2022/03/23 08:09:03;;;;;;;26.25;14.25;;;10.60;44.00;;;;;;4982151;28;20061;-43
2022/03/23 08:11:31;;;;;;;25.98;14.25;;;10.70;44.10;;;;;;4981110;28;20055;-42
2022/03/23 08:13:58;;;;;;;25.65;13.45;;;10.80;44.00;;;;;;4981777;28;20407;-42
2022/03/23 08:16:26;;;;;;;23.45;14.10;;;10.80;44.00;;;;;;4982987;28;20059;-42
2022/03/23 08:18:53;;;;;;;25.33;15.63;;;10.90;44.00;;;;;;4983695;28;20506;-42
2022/03/23 08:21:21;;;;;;;23.15;14.48;;;11.00;44.00;;;;;;4983230;28;20065;-45
2022/03/23 08:23:50;;;;;;;26.58;15.82;;;11.10;43.80;;;;;;4977602;28;20403;-43
2022/03/23 08:26:19;;;;;;;101.57;46.35;;;11.20;43.90;;;;;;4983122;28;20073;-46
2022/03/23 08:28:47;;;;;;;40.33;20.45;;;11.30;43.80;;;;;;4984636;28;20050;-43
2022/03/23 08:31:15;;;;;;;33.88;16.67;;;11.40;43.80;;;;;;4980716;28;20065;-43
2022/03/23 08:33:42;;;;;;;30.23;17.10;;;11.50;43.80;;;;;;4983663;28;20053;-43
2022/03/23 08:36:10;;;;;;;29.13;15.52;;;11.50;44.20;;;;;;4984588;28;20054;-44
2022/03/23 08:38:38;;;;;;;27.35;15.93;;;11.60;44.20;;;;;;4983670;28;20058;-42
2022/03/23 08:41:07;;;;;;;24.83;16.25;;;11.70;44.20;;;;;;4982633;28;20054;-42
2022/03/23 08:43:35;;;;;;;28.83;15.80;;;11.80;44.10;;;;;;4980753;28;20498;-42
2022/03/23 08:46:03;;;;;;;31.33;15.85;;;11.90;44.00;;;;;;4983406;28;20061;-43
2022/03/23 08:48:31;;;;;;;32.33;16.83;;;12.00;44.00;;;;;;4984305;28;20399;-42
2022/03/23 08:50:58;;;;;;;29.45;16.80;;;12.10;44.00;;;;;;4979105;28;20067;-42
2022/03/23 08:53:26;;;;;;;26.77;15.70;;;12.20;44.40;;;;;;4981933;28;20058;-45
2022/03/23 08:55:54;;;;;;;30.30;15.38;;;12.30;43.90;;;;;;4983391;28;20050;-42
2022/03/23 08:58:23;;;;;;;33.95;18.40;;;12.40;43.90;;;;;;4984255;28;20065;-43
2022/03/23 09:00:50;;;;;;;33.58;17.30;;;12.40;44.00;;;;;;4981529;28;20050;-45
2022/03/23 09:03:18;;;;;;;27.13;16.30;;;12.50;44.00;;;;;;4981373;28;20050;-43
2022/03/23 09:05:46;;;;;;;25.65;16.13;;;12.70;43.60;;;;;;4981210;28;20411;-43
2022/03/23 09:08:13;;;;;;;28.00;15.90;;;12.70;43.60;;;;;;4982795;28;20058;-42
2022/03/23 09:10:41;;;;;;;27.30;15.13;;;12.80;43.60;;;;;;4985325;28;20062;-43
2022/03/23 09:13:08;;;;;;;29.23;15.65;;;12.90;43.50;;;;;;4980544;28;20411;-43
2022/03/23 09:15:37;;;;;;;32.33;16.10;;;12.90;43.50;;;;;;4981763;28;20061;-43
2022/03/23 09:18:06;;;;;;;29.27;14.93;;;13.00;43.30;;;;;;4979413;28;20057;-43
2022/03/23 09:20:34;;;;;;;26.88;15.68;;;13.10;43.00;;;;;;4983276;28;20333;-43
2022/03/23 09:23:03;;;;;;;28.25;15.70;;;13.20;42.90;;;;;;4981402;28;20481;-42
2022/03/23 09:25:31;;;;;;;29.95;15.30;;;13.30;42.70;;;;;;4980761;28;20042;-44
2022/03/23 09:27:59;;;;;;;29.38;16.13;;;13.40;42.50;;;;;;4981217;28;20060;-42
2022/03/23 09:30:26;;;;;;;26.10;15.77;;;13.50;42.60;;;;;;4983506;28;20371;-42
2022/03/23 09:32:56;;;;;;;26.80;15.90;;;13.50;42.40;;;;;;4984129;28;20065;-43
2022/03/23 09:35:23;;;;;;;24.85;14.93;;;13.60;42.30;;;;;;4980214;28;20494;-43
2022/03/23 09:37:52;;;;;;;25.33;15.18;;;13.70;42.40;;;;;;4982609;28;20396;-42
2022/03/23 09:40:24;;;;;;;25.63;15.98;;;13.80;42.10;;;;;;4983372;28;20418;-42
2022/03/23 09:42:52;;;;;;;27.23;15.60;;;13.90;41.90;;;;;;4981824;28;20081;-43
2022/03/23 09:45:32;;;;;;;35.33;16.05;;;14.00;41.70;;;;;;4981241;28;20061;-43
2022/03/23 09:48:06;;;;;;;27.42;15.93;;;14.10;41.70;;;;;;4980845;28;20058;-42
2022/03/23 09:50:35;;;;;;;26.80;14.88;;;14.20;41.70;;;;;;4982271;28;20057;-43
2022/03/23 09:53:03;;;;;;;25.48;16.70;;;14.30;41.60;;;;;;4979416;28;20061;-43
2022/03/23 09:55:31;;;;;;;24.17;14.90;;;14.40;41.40;;;;;;4982476;28;20065;-42
2022/03/23 09:58:01;;;;;;;28.60;15.75;;;14.50;41.20;;;;;;4981681;28;20525;-42
2022/03/23 10:00:34;;;;;;;28.08;16.83;;;14.60;41.10;;;;;;4982299;28;20054;-43
2022/03/23 10:03:42;;;;;;;27.70;16.13;;;14.60;40.50;;;;;;4978011;28;20046;-43
2022/03/23 10:06:51;;;;;;;24.38;14.55;;;14.80;40.10;;;;;;4981712;28;20410;-43
2022/03/23 10:09:55;;;;;;;27.55;15.43;;;14.90;39.60;;;;;;4980106;28;20073;-45
2022/03/23 10:13:00;;;;;;;28.23;16.08;;;15.00;39.20;;;;;;4980002;28;20046;-43
2022/03/23 10:16:04;;;;;;;25.63;14.70;;;15.10;38.80;;;;;;4978197;28;20533;-45
2022/03/23 10:18:52;;;;;;;25.10;15.57;;;15.20;38.90;;;;;;4982279;28;20050;-42
2022/03/23 10:21:21;;;;;;;25.48;16.02;;;15.30;38.30;;;;;;4981421;28;20065;-44
2022/03/23 10:24:33;;;;;;;27.15;16.33;;;15.40;38.30;;;;;;4980412;28;20062;-43
2022/03/23 10:27:07;;;;;;;23.50;14.60;;;15.50;37.80;;;;;;4982472;28;20058;-43
2022/03/23 10:29:41;;;;;;;24.40;15.10;;;15.60;37.60;;;;;;4983492;28;20054;-43
2022/03/23 10:32:10;;;;;;;31.35;15.88;;;15.70;37.30;;;;;;4981279;28;20512;-44
2022/03/23 10:34:40;;;;;;;25.60;14.90;;;15.70;37.30;;;;;;4979307;28;20046;-45
2022/03/23 10:37:08;;;;;;;28.08;14.55;;;15.80;37.10;;;;;;4978533;28;20061;-42
2022/03/23 10:39:37;;;;;;;25.17;15.15;;;15.80;37.00;;;;;;4978426;28;20077;-43
2022/03/23 10:42:11;;;;;;;25.30;15.07;;;15.90;36.90;;;;;;4981178;28;20065;-43
2022/03/23 10:44:40;;;;;;;25.98;14.45;;;16.00;36.70;;;;;;4978947;28;20051;-43
2022/03/23 10:47:07;;;;;;;21.08;13.60;;;16.00;36.50;;;;;;4982359;28;20578;-42
2022/03/23 10:49:37;;;;;;;23.50;13.88;;;16.10;36.40;;;;;;4980036;28;20058;-43
2022/03/23 10:52:11;;;;;;;20.48;13.50;;;16.20;36.20;;;;;;4981514;28;20061;-42
2022/03/23 10:54:41;;;;;;;25.33;14.65;;;16.30;35.60;;;;;;4980586;28;20410;-43
2022/03/23 10:57:10;;;;;;;26.75;14.95;;;16.30;35.60;;;;;;4983137;28;20066;-42
2022/03/23 10:59:46;;;;;;;22.17;13.88;;;16.40;35.20;;;;;;4982517;28;20081;-43
2022/03/23 11:02:14;;;;;;;21.75;13.57;;;16.40;34.60;;;;;;4978316;28;20065;-43
2022/03/23 11:04:51;;;;;;;19.73;13.52;;;16.50;34.50;;;;;;4977415;28;20670;-43
2022/03/23 11:07:29;;;;;;;24.33;13.18;;;16.60;34.00;;;;;;4977659;28;20073;-43
2022/03/23 11:15:47;;;;;;;23.30;12.88;;;16.90;33.50;;;;;;4980340;28;20058;-43
2022/03/23 11:18:17;;;;;;;23.33;12.77;;;16.90;33.40;;;;;;4980734;28;20054;-43
2022/03/23 11:20:47;;;;;;;19.77;13.30;;;17.00;33.30;;;;;;4979832;28;20069;-43
2022/03/23 11:23:24;;;;;;;19.02;12.05;;;17.10;33.20;;;;;;4982058;28;20058;-43
2022/03/23 11:25:55;;;;;;;25.52;13.57;;;17.10;32.80;;;;;;4975593;28;20058;-43
2022/03/23 11:28:26;;;;;;;28.83;15.40;;;17.20;32.70;;;;;;4982857;28;20062;-43
2022/03/23 11:30:54;;;;;;;21.15;13.55;;;17.30;32.60;;;;;;4981710;28;20491;-43
2022/03/23 11:33:24;;;;;;;22.33;13.35;;;17.40;32.30;;;;;;4981527;28;20054;-43
2022/03/23 11:35:53;;;;;;;25.27;14.48;;;17.50;32.30;;;;;;4976541;28;20418;-43
2022/03/23 11:38:23;;;;;;;27.08;15.13;;;17.50;32.10;;;;;;4981580;28;20503;-44
2022/03/23 11:40:52;;;;;;;25.70;15.02;;;17.60;31.90;;;;;;4982211;28;20073;-44
2022/03/23 11:43:23;;;;;;;27.63;14.27;;;17.70;31.80;;;;;;4978546;28;20061;-43
2022/03/23 11:45:52;;;;;;;26.45;14.95;;;17.80;31.20;;;;;;4976819;28;20061;-43
2022/03/23 11:48:27;;;;;;;27.67;14.90;;;17.90;31.10;;;;;;4984880;28;20421;-43
2022/03/23 11:51:16;;;;;;;25.10;13.48;;;18.00;30.80;;;;;;4984865;28;20130;-43
2022/03/23 11:53:58;;;;;;;23.45;13.00;;;18.10;30.70;;;;;;4983684;28;20510;-44
2022/03/23 11:56:35;;;;;;;24.95;13.02;;;18.20;31.30;;;;;;4985034;28;20061;-43
2022/03/23 11:59:22;;;;;;;22.65;12.95;;;18.20;30.00;;;;;;4985970;28;20952;-43
2022/03/23 12:01:51;;;;;;;26.95;15.20;;;18.30;29.90;;;;;;4985249;28;20054;-43
2022/03/23 12:04:20;;;;;;;21.95;13.00;;;18.40;29.70;;;;;;4983073;28;20054;-43
2022/03/23 12:06:56;;;;;;;27.67;13.85;;;18.40;30.00;;;;;;4985676;28;20066;-43
2022/03/23 12:09:31;;;;;;;31.25;15.25;;;18.50;29.30;;;;;;4985032;28;20495;-43
2022/03/23 12:11:59;;;;;;;23.60;14.18;;;18.50;28.60;;;;;;4986005;28;20058;-43
2022/03/23 12:14:30;;;;;;;24.55;13.75;;;18.50;28.90;;;;;;4982809;28;20050;-43
2022/03/23 12:17:09;;;;;;;26.10;14.02;;;18.60;29.10;;;;;;4984659;28;20058;-43
2022/03/23 12:20:03;;;;;;;22.17;12.77;;;18.70;29.40;;;;;;4985171;28;20054;-43
2022/03/23 12:23:12;;;;;;;19.58;11.93;;;18.70;29.00;;;;;;4984939;28;20422;-42
2022/03/23 12:26:07;;;;;;;22.35;12.23;;;18.80;29.20;;;;;;4981301;28;20533;-43
2022/03/23 12:28:40;;;;;;;30.08;15.15;;;18.80;29.40;;;;;;4985464;28;20054;-43
2022/03/23 12:31:13;;;;;;;21.60;13.20;;;18.80;28.70;;;;;;4985755;28;20054;-43
2022/03/23 12:34:16;;;;;;;22.38;13.73;;;18.80;29.00;;;;;;4984277;28;20065;-43
2022/03/23 12:36:59;;;;;;;24.92;11.95;;;18.90;29.40;;;;;;4943401;29;20056;-43
2022/03/23 12:39:34;;;;;;;24.20;13.10;;;18.90;28.90;;;;;;4941417;28;20580;-43
2022/03/23 12:42:17;;;;;;;25.52;12.45;;;19.00;28.50;;;;;;4968357;28;20430;-43
2022/03/23 12:44:47;;;;;;;26.75;12.07;;;19.00;27.90;;;;;;4982873;28;20446;-43
2022/03/23 12:47:20;;;;;;;23.00;13.00;;;19.00;28.10;;;;;;4984786;28;20061;-43
2022/03/23 12:58:11;;;;;;;23.67;12.77;;;19.20;27.60;;;;;;4985201;28;21949;-43
2022/03/23 13:00:41;;;;;;;22.50;13.65;;;19.20;27.70;;;;;;4984947;28;20046;-44
2022/03/23 13:03:50;;;;;;;21.65;13.88;;;19.20;27.80;;;;;;4983988;28;20507;-43
2022/03/23 13:06:30;;;;;;;23.23;13.00;;;19.30;27.90;;;;;;4982508;28;20055;-43
2022/03/23 13:08:58;;;;;;;25.55;12.73;;;19.40;28.20;;;;;;4983897;28;20061;-42